createdAt,value
2023-01-10T00:01:07.626Z,62.13
2023-01-10T00:03:11.177Z,64.43
2023-01-10T00:05:12.766Z,75.57
2023-01-10T00:07:14.272Z,87.07
2023-01-10T00:09:15.940Z,69.25
2023-01-10T00:11:35.835Z,66.30
2023-01-10T00:13:37.354Z,74.93
2023-01-10T00:15:39.429Z,60.88
2023-01-10T00:17:41.034Z,64.88
2023-01-10T00:19:42.566Z,59.22
2023-01-10T00:21:44.046Z,66.95
2023-01-10T00:23:45.908Z,67.50
2023-01-10T00:25:47.523Z,72.90
2023-01-10T00:27:55.304Z,69.65
2023-01-10T00:29:59.163Z,78.93
2023-01-10T00:32:00.871Z,77.53
2023-01-10T00:34:02.361Z,76.20
2023-01-10T00:36:06.469Z,71.07
2023-01-10T00:38:07.971Z,61.50
2023-01-10T00:40:11.943Z,66.40
2023-01-10T00:42:51.701Z,59.80
2023-01-10T00:46:54.881Z,54.40
2023-01-10T00:48:57.302Z,57.90
2023-01-10T00:50:58.857Z,55.22
2023-01-10T00:53:00.366Z,54.08
2023-01-10T00:55:01.892Z,54.70
2023-01-10T00:57:03.507Z,55.28
2023-01-10T00:59:05.683Z,47.63
2023-01-10T01:01:07.253Z,43.40
2023-01-10T01:03:09.128Z,45.45
2023-01-10T01:05:10.666Z,48.20
2023-01-10T01:07:12.187Z,40.38
2023-01-10T01:09:15.018Z,46.10
2023-01-10T01:11:16.570Z,53.83
2023-01-10T01:13:20.908Z,46.40
2023-01-10T01:15:22.643Z,39.70
2023-01-10T01:17:24.533Z,44.42
2023-01-10T01:19:26.272Z,42.45
2023-01-10T01:21:28.420Z,42.38
2023-01-10T01:23:30.378Z,42.20
2023-01-10T01:25:32.317Z,41.55
2023-01-10T01:27:35.032Z,40.03
2023-01-10T01:29:42.898Z,40.50
2023-01-10T01:31:45.105Z,38.63
2023-01-10T01:33:47.051Z,38.40
2023-01-10T01:35:50.390Z,38.00
2023-01-10T01:37:52.167Z,38.75
2023-01-10T01:39:53.730Z,36.47
2023-01-10T01:41:57.959Z,36.40
2023-01-10T01:44:10.741Z,36.92
2023-01-10T01:46:12.518Z,33.58
2023-01-10T01:48:21.200Z,36.25
2023-01-10T01:50:44.554Z,33.95
2023-01-10T01:52:48.885Z,34.60
2023-01-10T01:54:53.343Z,35.15
2023-01-10T01:57:01.038Z,35.35
2023-01-10T01:59:08.419Z,35.03
2023-01-10T02:01:11.860Z,35.83
2023-01-10T02:03:14.853Z,34.75
2023-01-10T02:05:18.657Z,34.72
2023-01-10T02:07:22.616Z,34.38
2023-01-10T02:09:30.559Z,35.83
2023-01-10T02:11:32.109Z,34.97
2023-01-10T02:13:34.862Z,33.90
2023-01-10T02:15:36.474Z,32.85
2023-01-10T02:17:38.763Z,32.63
2023-01-10T02:19:59.030Z,35.20
2023-01-10T02:22:19.473Z,36.30
2023-01-10T02:24:43.746Z,35.47
2023-01-10T02:27:10.397Z,34.67
2023-01-10T02:29:30.541Z,36.20
2023-01-10T02:31:42.752Z,34.28
2023-01-10T02:34:02.405Z,35.08
2023-01-10T02:36:25.786Z,32.03
2023-01-10T02:38:36.454Z,31.13
2023-01-10T02:40:50.438Z,36.88
2023-01-10T02:43:02.308Z,35.15
2023-01-10T02:45:11.960Z,35.17
2023-01-10T02:47:14.507Z,32.92
2023-01-10T02:49:16.036Z,34.88
2023-01-10T02:51:20.138Z,35.95
2023-01-10T02:53:29.895Z,34.70
2023-01-10T02:57:51.105Z,37.17
2023-01-10T02:59:59.379Z,41.10
2023-01-10T03:02:06.148Z,48.20
2023-01-10T03:04:28.408Z,38.75
2023-01-10T03:06:47.840Z,37.83
2023-01-10T03:08:59.376Z,44.58
2023-01-10T03:11:04.545Z,49.95
2023-01-10T03:13:11.711Z,51.13
2023-01-10T03:15:18.773Z,49.58
2023-01-10T03:17:22.354Z,50.72
2023-01-10T03:19:27.367Z,50.70
2023-01-10T03:21:30.546Z,51.08
2023-01-10T03:23:35.047Z,44.35
2023-01-10T03:25:39.187Z,43.95
2023-01-10T03:27:43.751Z,43.22
2023-01-10T03:30:01.275Z,42.05
2023-01-10T03:32:06.103Z,49.22
2023-01-10T03:34:08.407Z,54.92
2023-01-10T03:36:34.853Z,53.67
2023-01-10T03:38:46.960Z,53.50
2023-01-10T03:40:58.099Z,61.75
2023-01-10T03:43:28.805Z,56.13
2023-01-10T03:45:38.684Z,51.67
2023-01-10T03:47:48.600Z,50.28
2023-01-10T03:49:54.419Z,43.42
2023-01-10T03:51:58.514Z,44.47
2023-01-10T03:54:01.159Z,43.13
2023-01-10T03:56:02.881Z,47.65
2023-01-10T03:58:04.479Z,49.25
2023-01-10T04:00:06.613Z,49.63
2023-01-10T04:02:08.257Z,47.00
2023-01-10T04:04:09.859Z,43.40
2023-01-10T04:06:11.471Z,42.65
2023-01-10T04:08:13.103Z,38.92
2023-01-10T04:10:15.110Z,37.28
2023-01-10T04:12:16.913Z,41.08
2023-01-10T04:14:18.455Z,42.97
2023-01-10T04:16:20.538Z,47.15
2023-01-10T04:18:22.108Z,43.63
2023-01-10T04:20:26.605Z,65.30
2023-01-10T04:22:28.238Z,72.25
2023-01-10T04:24:29.788Z,63.75
2023-01-10T04:26:31.350Z,59.25
2023-01-10T04:28:32.918Z,48.92
2023-01-10T04:30:34.427Z,49.75
2023-01-10T04:32:35.974Z,47.13
2023-01-10T04:34:37.570Z,51.20
2023-01-10T04:36:39.082Z,45.97
2023-01-10T04:38:40.627Z,41.55
2023-01-10T04:40:43.321Z,42.40
2023-01-10T04:42:45.142Z,41.83
2023-01-10T04:44:46.642Z,41.08
2023-01-10T04:46:48.183Z,40.33
2023-01-10T04:48:49.727Z,40.20
2023-01-10T04:50:52.141Z,42.35
2023-01-10T04:52:53.872Z,40.03
2023-01-10T04:54:55.410Z,39.30
2023-01-10T04:56:57.025Z,41.13
2023-01-10T04:58:58.795Z,41.25
2023-01-10T05:01:00.450Z,41.40
2023-01-10T05:03:02.192Z,41.72
2023-01-10T05:05:03.840Z,42.47
2023-01-10T05:07:05.336Z,39.53
2023-01-10T05:09:08.426Z,39.47
2023-01-10T05:11:10.046Z,40.72
2023-01-10T05:13:11.580Z,39.67
2023-01-10T05:15:13.446Z,40.30
2023-01-10T05:17:14.994Z,38.53
2023-01-10T05:19:16.523Z,41.22
2023-01-10T05:21:18.085Z,42.72
2023-01-10T05:23:19.758Z,42.38
2023-01-10T05:25:21.287Z,44.80
2023-01-10T05:27:22.915Z,45.30
2023-01-10T05:29:24.464Z,45.05
2023-01-10T05:31:26.050Z,51.80
2023-01-10T05:33:28.084Z,48.83
2023-01-10T05:35:29.740Z,41.67
2023-01-10T05:37:31.275Z,47.42
2023-01-10T05:39:32.794Z,52.97
2023-01-10T05:41:34.342Z,46.35
2023-01-10T05:43:35.989Z,116.70
2023-01-10T05:45:38.110Z,50.85
2023-01-10T05:47:39.690Z,61.38
2023-01-10T05:49:41.215Z,48.28
2023-01-10T05:51:42.727Z,48.28
2023-01-10T05:53:44.300Z,46.85
2023-01-10T05:55:57.039Z,38.03
2023-01-10T05:57:58.673Z,59.13
2023-01-10T06:00:00.235Z,37.33
2023-01-10T06:02:01.860Z,40.92
2023-01-10T06:04:04.082Z,41.40
2023-01-10T06:06:05.980Z,40.20
2023-01-10T06:08:07.536Z,37.25
2023-01-10T06:10:09.575Z,38.55
2023-01-10T06:12:11.103Z,39.83
2023-01-10T06:14:12.635Z,39.83
2023-01-10T06:16:14.211Z,41.08
2023-01-10T06:18:16.246Z,38.05
2023-01-10T06:20:17.839Z,40.45
2023-01-10T06:22:19.320Z,39.60
2023-01-10T06:24:20.821Z,41.30
2023-01-10T06:26:22.422Z,38.17
2023-01-10T06:28:23.951Z,38.38
2023-01-10T06:30:25.687Z,37.92
2023-01-10T06:32:28.092Z,35.25
2023-01-10T06:34:29.632Z,36.75
2023-01-10T06:36:31.778Z,40.65
2023-01-10T06:38:33.296Z,50.30
2023-01-10T06:40:34.800Z,38.08
2023-01-10T06:42:36.650Z,44.28
2023-01-10T06:44:38.361Z,42.33
2023-01-10T06:46:39.931Z,41.67
2023-01-10T06:48:43.964Z,40.97
2023-01-10T06:50:45.501Z,41.15
2023-01-10T06:52:47.055Z,41.22
2023-01-10T06:54:49.248Z,36.90
2023-01-10T06:56:50.772Z,40.88
2023-01-10T06:58:52.363Z,39.45
2023-01-10T07:00:53.994Z,40.42
2023-01-10T07:02:58.436Z,37.78
2023-01-10T07:04:59.992Z,37.40
2023-01-10T07:07:01.509Z,40.28
2023-01-10T07:09:03.384Z,41.55
2023-01-10T07:11:05.184Z,41.42
2023-01-10T07:13:06.685Z,39.03
2023-01-10T07:15:08.842Z,38.97
2023-01-10T07:17:10.385Z,33.58
2023-01-10T07:19:13.620Z,36.17
2023-01-10T07:21:16.863Z,32.03
2023-01-10T07:23:18.392Z,34.35
2023-01-10T07:25:19.979Z,39.50
2023-01-10T07:27:21.515Z,34.88
2023-01-10T07:29:23.123Z,39.08
2023-01-10T07:31:24.863Z,39.80
2023-01-10T07:33:26.805Z,39.08
2023-01-10T07:35:28.467Z,37.70
2023-01-10T07:37:29.984Z,33.75
2023-01-10T07:39:31.497Z,39.55
2023-01-10T07:41:32.990Z,50.85
2023-01-10T07:43:34.949Z,37.30
2023-01-10T07:45:36.479Z,44.67
2023-01-10T07:47:39.165Z,40.05
2023-01-10T07:49:40.771Z,46.78
2023-01-10T07:51:42.329Z,32.08
2023-01-10T07:53:44.027Z,30.13
2023-01-10T07:55:46.188Z,38.55
2023-01-10T07:57:47.843Z,26.95
2023-01-10T07:59:49.355Z,34.95
2023-01-10T08:01:50.939Z,32.30
2023-01-10T08:03:52.484Z,34.97
2023-01-10T08:06:06.743Z,39.22
2023-01-10T08:08:10.268Z,34.85
2023-01-10T08:10:11.942Z,35.95
2023-01-10T08:12:13.809Z,30.27
2023-01-10T08:14:15.496Z,35.78
2023-01-10T08:16:17.178Z,35.22
2023-01-10T08:18:20.774Z,29.70
2023-01-10T08:20:22.371Z,37.78
2023-01-10T08:22:23.890Z,34.60
2023-01-10T08:24:25.385Z,43.85
2023-01-10T08:26:26.896Z,31.85
2023-01-10T08:28:28.858Z,28.45
2023-01-10T08:30:30.445Z,29.67
2023-01-10T08:32:31.988Z,34.00
2023-01-10T08:34:33.747Z,33.38
2023-01-10T08:36:35.229Z,34.88
2023-01-10T08:38:36.750Z,35.00
2023-01-10T08:40:38.651Z,43.03
2023-01-10T08:42:40.339Z,25.98
2023-01-10T08:44:41.940Z,39.78
2023-01-10T08:46:43.527Z,54.95
2023-01-10T08:48:45.151Z,41.22
2023-01-10T08:50:46.643Z,42.08
2023-01-10T08:52:48.296Z,34.63
2023-01-10T08:54:50.338Z,22.58
2023-01-10T08:56:51.890Z,27.38
2023-01-10T08:58:53.456Z,25.15
2023-01-10T09:00:55.120Z,26.20
2023-01-10T09:03:03.122Z,29.13
2023-01-10T09:05:18.561Z,25.42
2023-01-10T09:09:53.969Z,20.05
2023-01-10T09:11:56.267Z,18.33
2023-01-10T09:13:58.251Z,15.25
2023-01-10T09:16:00.328Z,24.70
2023-01-10T09:18:10.495Z,16.50
2023-01-10T09:20:12.591Z,29.73
2023-01-10T09:22:14.355Z,28.75
2023-01-10T09:24:19.587Z,28.63
2023-01-10T09:28:37.495Z,34.75
2023-01-10T09:30:39.107Z,33.70
2023-01-10T09:32:40.753Z,37.28
2023-01-10T09:34:42.299Z,36.03
2023-01-10T09:36:43.799Z,35.15
2023-01-10T09:38:45.397Z,34.63
2023-01-10T09:40:54.074Z,33.25
2023-01-10T09:43:05.495Z,38.80
2023-01-10T09:45:21.083Z,39.72
2023-01-10T09:47:34.429Z,36.10
2023-01-10T09:50:12.380Z,40.95
2023-01-10T09:52:28.643Z,37.00
2023-01-10T09:54:35.538Z,37.75
2023-01-10T09:56:37.461Z,41.28
2023-01-10T09:58:39.277Z,29.92
2023-01-10T10:00:55.856Z,40.45
2023-01-10T10:02:57.949Z,46.45
2023-01-10T10:05:18.407Z,46.58
2023-01-10T10:07:20.526Z,42.13
2023-01-10T10:09:28.697Z,44.03
2023-01-10T10:11:35.687Z,39.00
2023-01-10T10:14:05.584Z,43.42
2023-01-10T10:16:31.199Z,38.90
2023-01-10T10:18:55.204Z,39.20
2023-01-10T10:21:31.361Z,39.90
2023-01-10T10:23:41.809Z,43.47
2023-01-10T10:26:04.446Z,72.82
2023-01-10T10:28:06.018Z,66.60
2023-01-10T10:30:19.415Z,49.80
2023-01-10T10:32:29.924Z,48.28
2023-01-10T10:34:42.720Z,47.40
2023-01-10T10:36:57.409Z,56.80
2023-01-10T10:39:01.221Z,47.60
2023-01-10T10:41:02.864Z,55.53
2023-01-10T10:43:16.376Z,45.60
2023-01-10T10:45:29.283Z,61.15
2023-01-10T10:47:36.357Z,48.67
2023-01-10T10:49:51.012Z,47.63
2023-01-10T10:51:53.856Z,42.40
2023-01-10T10:53:57.414Z,45.90
2023-01-10T10:56:00.359Z,50.80
2023-01-10T10:58:04.344Z,46.38
2023-01-10T11:00:08.930Z,47.75
2023-01-10T11:02:28.782Z,45.50
2023-01-10T11:06:35.588Z,43.80
2023-01-10T11:08:43.344Z,47.47
2023-01-10T11:10:49.835Z,41.10
2023-01-10T11:12:53.087Z,27.80
2023-01-10T11:14:54.614Z,28.02
2023-01-10T11:17:20.137Z,44.22
2023-01-10T11:19:24.071Z,45.80
2023-01-10T11:21:25.647Z,42.53
2023-01-10T11:23:49.116Z,43.55
2023-01-10T11:25:51.176Z,42.65
2023-01-10T11:27:56.920Z,44.33
2023-01-10T11:30:08.864Z,40.25
2023-01-10T11:32:15.502Z,38.85
2023-01-10T11:34:32.138Z,40.20
2023-01-10T11:37:04.858Z,42.25
2023-01-10T11:39:06.382Z,42.97
2023-01-10T11:41:19.765Z,49.97
2023-01-10T11:43:37.631Z,45.53
2023-01-10T11:45:40.618Z,41.92
2023-01-10T11:47:45.725Z,50.75
2023-01-10T11:49:50.057Z,53.72
2023-01-10T11:51:55.764Z,59.88
2023-01-10T11:54:06.765Z,65.20
2023-01-10T11:56:14.326Z,84.90
2023-01-10T11:58:15.994Z,80.68
2023-01-10T12:00:18.015Z,42.47
2023-01-10T12:02:29.653Z,49.15
2023-01-10T12:04:34.379Z,57.80
2023-01-10T12:06:35.957Z,70.55
2023-01-10T12:08:42.435Z,71.75
2023-01-10T12:10:58.477Z,253.75
2023-01-10T12:13:12.697Z,190.40
2023-01-10T12:15:26.707Z,152.50
2023-01-10T12:17:32.745Z,175.02
2023-01-10T12:19:34.296Z,91.78
2023-01-10T12:21:41.488Z,69.95
2023-01-10T12:23:45.941Z,149.10
2023-01-10T12:25:49.118Z,91.80
2023-01-10T12:27:52.758Z,82.85
2023-01-10T12:30:03.439Z,70.80
2023-01-10T12:32:11.265Z,41.67
2023-01-10T12:34:37.015Z,48.88
2023-01-10T12:36:49.712Z,62.30
2023-01-10T12:39:06.191Z,76.05
2023-01-10T12:41:10.841Z,49.53
2023-01-10T12:43:36.950Z,39.47
2023-01-10T12:45:54.135Z,48.50
2023-01-10T12:48:02.831Z,39.50
2023-01-10T12:50:14.330Z,44.45
2023-01-10T12:52:29.498Z,46.72
2023-01-10T12:54:31.395Z,42.35
2023-01-10T12:56:33.153Z,46.25
2023-01-10T12:58:46.091Z,48.05
2023-01-10T13:00:52.883Z,48.05
2023-01-10T13:02:57.609Z,52.30
2023-01-10T13:05:03.095Z,46.65
2023-01-10T13:07:05.638Z,51.38
2023-01-10T13:09:31.061Z,53.10
2023-01-10T13:11:42.479Z,42.90
2023-01-10T13:13:52.318Z,61.30
2023-01-10T13:15:57.423Z,60.42
2023-01-10T13:18:02.853Z,78.82
2023-01-10T13:20:16.717Z,57.33
2023-01-10T13:22:23.220Z,49.15
2023-01-10T13:24:28.656Z,45.92
2023-01-10T13:27:05.718Z,51.33
2023-01-10T13:29:11.970Z,58.10
2023-01-10T13:31:26.452Z,53.53
2023-01-10T13:33:36.085Z,45.33
2023-01-10T13:35:41.281Z,42.03
2023-01-10T13:37:50.660Z,42.47
2023-01-10T13:39:58.932Z,44.80
2023-01-10T13:42:19.121Z,46.13
2023-01-10T13:44:20.661Z,44.38
2023-01-10T13:46:22.153Z,44.92
2023-01-10T13:48:27.493Z,43.85
2023-01-10T13:50:38.554Z,48.22
2023-01-10T13:52:40.378Z,62.92
2023-01-10T13:54:55.890Z,48.55
2023-01-10T13:56:57.387Z,48.75
2023-01-10T13:59:17.869Z,44.05
2023-01-10T14:01:55.020Z,45.28
2023-01-10T14:03:58.595Z,38.80
2023-01-10T14:06:01.245Z,34.25
2023-01-10T14:08:02.868Z,41.75
2023-01-10T14:10:09.402Z,42.90
2023-01-10T14:12:31.165Z,45.08
2023-01-10T14:14:39.505Z,42.47
2023-01-10T14:16:49.053Z,39.63
2023-01-10T14:18:50.716Z,41.05
2023-01-10T14:21:02.715Z,42.45
2023-01-10T14:23:16.072Z,42.15
2023-01-10T14:25:22.004Z,46.15
2023-01-10T14:27:23.882Z,38.63
2023-01-10T14:29:30.711Z,41.60
2023-01-10T14:31:33.340Z,44.53
2023-01-10T14:33:36.469Z,48.90
2023-01-10T14:35:43.618Z,45.13
2023-01-10T14:37:56.540Z,40.17
2023-01-10T14:39:59.340Z,37.85
2023-01-10T14:42:08.352Z,34.08
2023-01-10T14:44:16.961Z,42.53
2023-01-10T14:46:52.004Z,69.75
2023-01-10T14:48:55.289Z,44.60
2023-01-10T14:51:10.413Z,48.30
2023-01-10T14:53:38.513Z,40.10
2023-01-10T14:55:43.036Z,53.53
2023-01-10T14:57:56.068Z,40.78
2023-01-10T15:00:08.088Z,32.33
2023-01-10T15:02:15.477Z,43.53
2023-01-10T15:04:19.031Z,51.60
2023-01-10T15:06:21.311Z,43.90
2023-01-10T15:08:24.063Z,48.10
2023-01-10T15:10:33.888Z,55.22
2023-01-10T15:14:38.079Z,54.97
2023-01-10T15:16:40.509Z,77.68
2023-01-10T15:18:45.760Z,77.93
2023-01-10T15:20:47.556Z,56.25
2023-01-10T15:23:02.123Z,46.10
2023-01-10T15:25:19.205Z,51.53
2023-01-10T15:27:20.711Z,70.22
2023-01-10T15:29:24.476Z,50.58
2023-01-10T15:31:26.227Z,54.47
2023-01-10T15:33:30.417Z,85.75
2023-01-10T15:35:36.646Z,77.15
2023-01-10T15:37:40.954Z,64.10
2023-01-10T15:39:46.511Z,107.03
2023-01-10T15:41:48.910Z,53.05
2023-01-10T15:43:52.130Z,69.95
2023-01-10T15:45:56.052Z,58.88
2023-01-10T15:48:03.878Z,45.88
2023-01-10T15:50:33.480Z,48.40
2023-01-10T15:52:35.026Z,70.97
2023-01-10T15:54:37.822Z,47.72
2023-01-10T15:56:42.133Z,53.67
2023-01-10T15:58:43.769Z,48.88
2023-01-10T16:00:47.752Z,54.53
2023-01-10T16:02:51.394Z,60.05
2023-01-10T16:04:56.831Z,49.70
2023-01-10T16:07:07.249Z,43.45
2023-01-10T16:09:19.941Z,52.95
2023-01-10T16:11:44.792Z,52.10
2023-01-10T16:13:46.272Z,53.30
2023-01-10T16:15:47.775Z,55.10
2023-01-10T16:17:49.721Z,52.03
2023-01-10T16:19:51.207Z,45.65
2023-01-10T16:22:00.490Z,50.25
2023-01-10T16:24:03.851Z,47.40
2023-01-10T16:26:08.825Z,44.88
2023-01-10T16:28:16.416Z,41.33
2023-01-10T16:30:23.647Z,39.90
2023-01-10T16:32:26.011Z,23.90
2023-01-10T16:34:27.624Z,42.47
2023-01-10T16:36:29.248Z,55.85
2023-01-10T16:38:30.775Z,48.00
2023-01-10T16:40:39.128Z,48.40
2023-01-10T16:42:58.984Z,62.90
2023-01-10T16:45:00.501Z,50.65
2023-01-10T16:47:06.423Z,46.85
2023-01-10T16:49:08.422Z,48.63
2023-01-10T16:51:25.271Z,51.47
2023-01-10T16:53:26.800Z,41.50
2023-01-10T16:55:37.208Z,48.63
2023-01-10T16:57:38.764Z,50.70
2023-01-10T16:59:40.588Z,48.33
2023-01-10T17:01:46.747Z,69.53
2023-01-10T17:03:48.473Z,108.68
2023-01-10T17:05:50.774Z,63.78
2023-01-10T17:07:52.357Z,79.65
2023-01-10T17:09:53.834Z,55.33
2023-01-10T17:12:05.140Z,70.68
2023-01-10T17:14:07.085Z,97.90
2023-01-10T17:16:08.829Z,63.45
2023-01-10T17:18:11.171Z,63.78
2023-01-10T17:20:15.052Z,39.92
2023-01-10T17:22:16.578Z,43.92
2023-01-10T17:24:18.138Z,65.32
2023-01-10T17:26:21.119Z,42.25
2023-01-10T17:28:22.848Z,41.80
2023-01-10T17:30:24.427Z,46.25
2023-01-10T17:32:25.951Z,41.75
2023-01-10T17:34:27.458Z,44.63
2023-01-10T17:36:30.329Z,50.00
2023-01-10T17:38:31.896Z,40.65
2023-01-10T17:40:33.625Z,40.42
2023-01-10T17:42:35.239Z,34.38
2023-01-10T17:44:36.890Z,29.67
2023-01-10T17:46:39.884Z,30.58
2023-01-10T17:48:41.591Z,37.17
2023-01-10T17:50:44.594Z,30.52
2023-01-10T17:52:46.170Z,38.60
2023-01-10T17:54:47.808Z,33.80
2023-01-10T17:56:49.333Z,35.35
2023-01-10T17:58:52.009Z,18.33
2023-01-10T18:00:53.715Z,43.15
2023-01-10T18:02:55.362Z,35.83
2023-01-10T18:04:56.986Z,36.15
2023-01-10T18:06:58.489Z,41.05
2023-01-10T18:09:00.981Z,22.80
2023-01-10T18:11:03.132Z,40.15
2023-01-10T18:13:04.592Z,38.95
2023-01-10T18:15:06.795Z,37.55
2023-01-10T18:17:11.106Z,46.30
2023-01-10T18:19:12.704Z,35.90
2023-01-10T18:21:17.159Z,30.05
2023-01-10T18:23:21.376Z,40.65
2023-01-10T18:25:24.635Z,41.42
2023-01-10T18:27:27.452Z,38.65
2023-01-10T18:29:29.003Z,56.80
2023-01-10T18:31:30.478Z,52.42
2023-01-10T18:33:32.752Z,47.45
2023-01-10T18:35:34.428Z,42.45
2023-01-10T18:37:36.145Z,44.70
2023-01-10T18:39:37.748Z,71.65
2023-01-10T18:41:39.349Z,48.00
2023-01-10T18:43:41.181Z,48.42
2023-01-10T18:45:45.406Z,49.05
2023-01-10T18:47:51.935Z,49.92
2023-01-10T18:49:53.731Z,49.08
2023-01-10T18:51:55.229Z,57.67
2023-01-10T18:53:57.362Z,49.72
2023-01-10T18:56:01.569Z,50.63
2023-01-10T18:58:03.313Z,51.88
2023-01-10T19:00:06.300Z,57.63
2023-01-10T19:02:12.507Z,49.83
2023-01-10T19:04:14.069Z,53.33
2023-01-10T19:06:17.114Z,59.58
2023-01-10T19:08:18.625Z,50.25
2023-01-10T19:10:20.243Z,60.28
2023-01-10T19:12:21.756Z,51.45
2023-01-10T19:14:23.270Z,53.53
2023-01-10T19:16:28.286Z,47.40
2023-01-10T19:18:29.953Z,51.75
2023-01-10T19:20:31.496Z,53.03
2023-01-10T19:22:33.055Z,50.47
2023-01-10T19:24:37.673Z,51.78
2023-01-10T19:26:39.520Z,47.97
2023-01-10T19:28:43.103Z,67.30
2023-01-10T19:30:46.927Z,69.75
2023-01-10T19:32:51.055Z,51.47
2023-01-10T19:34:52.642Z,51.75
2023-01-10T19:36:54.172Z,48.05
2023-01-10T19:38:57.714Z,48.80
2023-01-10T19:40:59.320Z,53.65
2023-01-10T19:43:01.991Z,67.43
2023-01-10T19:45:05.105Z,46.15
2023-01-10T19:47:06.661Z,48.35
2023-01-10T19:49:08.410Z,48.97
2023-01-10T19:51:12.607Z,49.47
2023-01-10T19:53:14.541Z,46.13
2023-01-10T19:55:16.183Z,51.35
2023-01-10T19:57:17.860Z,53.10
2023-01-10T19:59:20.254Z,53.75
2023-01-10T20:01:24.514Z,49.97
2023-01-10T20:03:26.307Z,49.17
2023-01-10T20:05:28.028Z,51.90
2023-01-10T20:07:29.867Z,50.17
2023-01-10T20:09:33.623Z,46.28
2023-01-10T20:11:40.359Z,43.42
2023-01-10T20:13:46.001Z,42.72
2023-01-10T20:15:47.560Z,44.05
2023-01-10T20:17:49.077Z,41.10
2023-01-10T20:19:50.889Z,41.28
2023-01-10T20:21:52.480Z,40.28
2023-01-10T20:23:54.027Z,38.20
2023-01-10T20:25:57.969Z,37.95
2023-01-10T20:27:59.583Z,39.03
2023-01-10T20:30:01.133Z,38.35
2023-01-10T20:32:03.184Z,48.75
2023-01-10T20:34:05.410Z,51.33
2023-01-10T20:36:10.480Z,55.00
2023-01-10T20:38:12.014Z,42.38
2023-01-10T20:40:13.725Z,48.50
2023-01-10T20:42:15.208Z,43.20
2023-01-10T20:44:16.796Z,39.58
2023-01-10T20:46:24.750Z,42.88
2023-01-10T20:48:26.518Z,76.22
2023-01-10T20:50:28.118Z,46.75
2023-01-10T20:52:29.701Z,41.80
2023-01-10T20:54:31.306Z,43.78
2023-01-10T20:56:33.172Z,42.58
2023-01-10T20:58:39.676Z,42.50
2023-01-10T21:00:41.262Z,45.63
2023-01-10T21:02:43.595Z,48.42
2023-01-10T21:04:45.176Z,48.25
2023-01-10T21:06:46.732Z,36.67
2023-01-10T21:08:49.856Z,37.97
2023-01-10T21:10:52.405Z,37.65
2023-01-10T21:12:54.013Z,35.50
2023-01-10T21:14:55.661Z,34.75
2023-01-10T21:16:57.224Z,37.08
2023-01-10T21:19:01.074Z,33.75
2023-01-10T21:21:02.702Z,35.67
2023-01-10T21:23:04.208Z,39.33
2023-01-10T21:25:06.158Z,39.80
2023-01-10T21:27:07.659Z,41.05
2023-01-10T21:29:10.467Z,41.10
2023-01-10T21:31:19.597Z,36.35
2023-01-10T21:33:21.574Z,44.15
2023-01-10T21:35:23.143Z,35.25
2023-01-10T21:37:24.679Z,33.22
2023-01-10T21:39:26.276Z,41.08
2023-01-10T21:41:46.484Z,33.97
2023-01-10T21:43:48.022Z,32.40
2023-01-10T21:45:50.011Z,31.80
2023-01-10T21:47:52.250Z,34.08
2023-01-10T21:49:53.760Z,38.13
2023-01-10T21:51:55.858Z,34.35
2023-01-10T21:53:57.794Z,38.03
2023-01-10T21:56:02.343Z,34.47
2023-01-10T21:58:04.020Z,36.20
2023-01-10T22:00:06.661Z,36.63
2023-01-10T22:02:15.814Z,37.15
2023-01-10T22:04:17.690Z,34.33
2023-01-10T22:06:19.252Z,41.35
2023-01-10T22:08:20.883Z,35.03
2023-01-10T22:10:22.595Z,42.33
2023-01-10T22:12:25.193Z,35.45
2023-01-10T22:14:26.711Z,37.88
2023-01-10T22:16:28.333Z,35.05
2023-01-10T22:18:31.121Z,39.65
2023-01-10T22:20:32.882Z,42.72
2023-01-10T22:22:34.452Z,40.80
2023-01-10T22:24:36.224Z,41.25
2023-01-10T22:26:38.168Z,40.67
2023-01-10T22:28:39.789Z,39.67
2023-01-10T22:30:41.291Z,45.80
2023-01-10T22:32:42.801Z,46.13
2023-01-10T22:34:44.318Z,46.58
2023-01-10T22:36:46.165Z,42.20
2023-01-10T22:38:48.407Z,48.55
2023-01-10T22:40:50.007Z,46.90
2023-01-10T22:42:54.767Z,51.60
2023-01-10T22:44:56.400Z,49.28
2023-01-10T22:46:57.913Z,46.55
2023-01-10T22:49:00.547Z,55.47
2023-01-10T22:51:02.439Z,48.75
2023-01-10T22:53:04.263Z,52.63
2023-01-10T22:55:06.447Z,47.10
2023-01-10T22:57:08.050Z,50.65
2023-01-10T23:01:28.905Z,45.33
2023-01-10T23:03:30.458Z,45.60
2023-01-10T23:05:31.960Z,50.05
2023-01-10T23:07:33.455Z,49.20
2023-01-10T23:09:34.920Z,49.20
2023-01-10T23:11:36.414Z,48.90
2023-01-10T23:13:38.284Z,51.47
2023-01-10T23:15:39.904Z,48.42
2023-01-10T23:17:41.945Z,52.97
2023-01-10T23:19:43.530Z,52.58
2023-01-10T23:21:45.039Z,55.55
2023-01-10T23:23:46.633Z,57.53
2023-01-10T23:26:01.409Z,71.60
2023-01-10T23:28:03.186Z,54.83
2023-01-10T23:30:09.564Z,52.40
2023-01-10T23:32:11.382Z,52.72
2023-01-10T23:34:12.901Z,52.10
2023-01-10T23:36:15.327Z,51.13
2023-01-10T23:38:17.542Z,95.35
2023-01-10T23:40:19.358Z,63.10
2023-01-10T23:42:20.943Z,53.45
2023-01-10T23:44:22.548Z,53.45
2023-01-10T23:46:24.363Z,56.22
2023-01-10T23:48:26.094Z,61.97
2023-01-10T23:50:27.752Z,55.88
2023-01-10T23:52:29.272Z,58.97
2023-01-10T23:54:31.023Z,62.38
2023-01-10T23:56:32.550Z,64.80
2023-01-10T23:58:34.218Z,63.40
